sensor_id;sensor_type;location;lat;lon;timestamp;P1;durP1;ratioP1;P2;durP2;ratioP2
27161;SDS011;54464;50.558;9.704;2023-09-07T00:00:12;6.80;;;5.53;;
27161;SDS011;54464;50.558;9.704;2023-09-07T00:02:38;7.97;;;6.00;;
27161;SDS011;54464;50.558;9.704;2023-09-07T00:05:05;8.37;;;5.97;;
27161;SDS011;54464;50.558;9.704;2023-09-07T00:07:32;7.00;;;5.50;;
27161;SDS011;54464;50.558;9.704;2023-09-07T00:09:57;6.60;;;5.37;;
27161;SDS011;54464;50.558;9.704;2023-09-07T00:12:23;7.30;;;5.57;;
27161;SDS011;54464;50.558;9.704;2023-09-07T00:14:48;8.27;;;5.30;;
27161;SDS011;54464;50.558;9.704;2023-09-07T00:17:14;6.27;;;5.30;;
27161;SDS011;54464;50.558;9.704;2023-09-07T00:19:39;5.73;;;5.20;;
27161;SDS011;54464;50.558;9.704;2023-09-07T00:22:05;6.83;;;5.43;;
27161;SDS011;54464;50.558;9.704;2023-09-07T00:24:30;7.43;;;5.27;;
27161;SDS011;54464;50.558;9.704;2023-09-07T00:26:59;7.47;;;5.40;;
27161;SDS011;54464;50.558;9.704;2023-09-07T00:29:24;5.50;;;5.00;;
27161;SDS011;54464;50.558;9.704;2023-09-07T00:31:50;7.17;;;5.83;;
27161;SDS011;54464;50.558;9.704;2023-09-07T00:34:15;6.80;;;5.97;;
27161;SDS011;54464;50.558;9.704;2023-09-07T00:36:41;6.57;;;5.73;;
27161;SDS011;54464;50.558;9.704;2023-09-07T00:39:07;7.87;;;6.10;;
27161;SDS011;54464;50.558;9.704;2023-09-07T00:41:33;6.63;;;5.63;;
27161;SDS011;54464;50.558;9.704;2023-09-07T00:43:59;6.80;;;5.90;;
27161;SDS011;54464;50.558;9.704;2023-09-07T00:46:24;6.63;;;5.93;;
27161;SDS011;54464;50.558;9.704;2023-09-07T00:48:50;6.77;;;5.50;;
27161;SDS011;54464;50.558;9.704;2023-09-07T00:51:16;8.50;;;5.60;;
27161;SDS011;54464;50.558;9.704;2023-09-07T00:53:42;7.60;;;5.70;;
27161;SDS011;54464;50.558;9.704;2023-09-07T00:56:08;6.77;;;5.20;;
27161;SDS011;54464;50.558;9.704;2023-09-07T00:58:34;8.00;;;5.37;;
27161;SDS011;54464;50.558;9.704;2023-09-07T01:01:00;7.00;;;4.80;;
27161;SDS011;54464;50.558;9.704;2023-09-07T01:03:25;5.97;;;5.47;;
27161;SDS011;54464;50.558;9.704;2023-09-07T01:08:26;7.57;;;5.00;;
27161;SDS011;54464;50.558;9.704;2023-09-07T01:11:01;6.93;;;5.33;;
27161;SDS011;54464;50.558;9.704;2023-09-07T01:13:38;6.17;;;4.90;;
27161;SDS011;54464;50.558;9.704;2023-09-07T01:16:03;5.87;;;5.07;;
27161;SDS011;54464;50.558;9.704;2023-09-07T01:18:29;7.90;;;5.47;;
27161;SDS011;54464;50.558;9.704;2023-09-07T01:20:55;7.47;;;5.37;;
27161;SDS011;54464;50.558;9.704;2023-09-07T01:23:23;6.80;;;5.60;;
27161;SDS011;54464;50.558;9.704;2023-09-07T01:25:49;6.90;;;5.67;;
27161;SDS011;54464;50.558;9.704;2023-09-07T01:28:16;11.00;;;7.03;;
27161;SDS011;54464;50.558;9.704;2023-09-07T01:30:41;7.00;;;6.17;;
27161;SDS011;54464;50.558;9.704;2023-09-07T01:33:07;11.43;;;7.63;;
27161;SDS011;54464;50.558;9.704;2023-09-07T01:35:33;7.87;;;6.47;;
27161;SDS011;54464;50.558;9.704;2023-09-07T01:38:00;8.37;;;6.47;;
27161;SDS011;54464;50.558;9.704;2023-09-07T01:40:26;9.83;;;6.47;;
27161;SDS011;54464;50.558;9.704;2023-09-07T01:42:52;6.83;;;5.53;;
27161;SDS011;54464;50.558;9.704;2023-09-07T01:45:17;7.33;;;5.80;;
27161;SDS011;54464;50.558;9.704;2023-09-07T01:47:43;8.57;;;5.63;;
27161;SDS011;54464;50.558;9.704;2023-09-07T01:50:09;6.13;;;5.53;;
27161;SDS011;54464;50.558;9.704;2023-09-07T01:52:34;5.67;;;5.07;;
27161;SDS011;54464;50.558;9.704;2023-09-07T01:55:00;6.57;;;5.87;;
27161;SDS011;54464;50.558;9.704;2023-09-07T01:57:25;6.90;;;5.33;;
27161;SDS011;54464;50.558;9.704;2023-09-07T01:59:51;7.03;;;5.40;;
27161;SDS011;54464;50.558;9.704;2023-09-07T02:02:17;6.53;;;5.70;;
27161;SDS011;54464;50.558;9.704;2023-09-07T02:04:42;8.57;;;5.83;;
27161;SDS011;54464;50.558;9.704;2023-09-07T02:07:11;7.43;;;5.60;;
27161;SDS011;54464;50.558;9.704;2023-09-07T02:09:37;7.00;;;5.43;;
27161;SDS011;54464;50.558;9.704;2023-09-07T02:12:02;6.00;;;5.30;;
27161;SDS011;54464;50.558;9.704;2023-09-07T02:14:29;5.67;;;5.03;;
27161;SDS011;54464;50.558;9.704;2023-09-07T02:16:55;8.13;;;6.43;;
27161;SDS011;54464;50.558;9.704;2023-09-07T02:19:21;10.17;;;8.37;;
27161;SDS011;54464;50.558;9.704;2023-09-07T02:21:48;9.73;;;7.23;;
27161;SDS011;54464;50.558;9.704;2023-09-07T02:24:15;9.67;;;7.60;;
27161;SDS011;54464;50.558;9.704;2023-09-07T02:26:43;9.63;;;7.53;;
27161;SDS011;54464;50.558;9.704;2023-09-07T02:29:11;9.23;;;7.30;;
27161;SDS011;54464;50.558;9.704;2023-09-07T02:31:37;10.83;;;8.37;;
27161;SDS011;54464;50.558;9.704;2023-09-07T02:34:03;8.93;;;7.63;;
27161;SDS011;54464;50.558;9.704;2023-09-07T02:36:28;8.87;;;7.40;;
27161;SDS011;54464;50.558;9.704;2023-09-07T02:38:54;9.10;;;6.90;;
27161;SDS011;54464;50.558;9.704;2023-09-07T02:41:19;9.17;;;7.13;;
27161;SDS011;54464;50.558;9.704;2023-09-07T02:43:45;9.40;;;7.47;;
27161;SDS011;54464;50.558;9.704;2023-09-07T02:46:11;9.70;;;6.33;;
27161;SDS011;54464;50.558;9.704;2023-09-07T02:48:36;8.63;;;7.30;;
27161;SDS011;54464;50.558;9.704;2023-09-07T02:51:02;7.47;;;6.40;;
27161;SDS011;54464;50.558;9.704;2023-09-07T02:53:28;8.20;;;6.77;;
27161;SDS011;54464;50.558;9.704;2023-09-07T02:55:54;8.27;;;6.13;;
27161;SDS011;54464;50.558;9.704;2023-09-07T02:58:21;6.30;;;5.57;;
27161;SDS011;54464;50.558;9.704;2023-09-07T03:00:48;7.00;;;6.00;;
27161;SDS011;54464;50.558;9.704;2023-09-07T03:03:13;6.77;;;5.47;;
27161;SDS011;54464;50.558;9.704;2023-09-07T03:05:42;6.57;;;5.50;;
27161;SDS011;54464;50.558;9.704;2023-09-07T03:08:08;7.43;;;5.80;;
27161;SDS011;54464;50.558;9.704;2023-09-07T03:10:37;6.27;;;5.30;;
27161;SDS011;54464;50.558;9.704;2023-09-07T03:13:04;6.77;;;5.33;;
27161;SDS011;54464;50.558;9.704;2023-09-07T03:15:31;6.10;;;5.37;;
27161;SDS011;54464;50.558;9.704;2023-09-07T03:17:56;6.10;;;5.50;;
27161;SDS011;54464;50.558;9.704;2023-09-07T03:20:22;6.10;;;5.30;;
27161;SDS011;54464;50.558;9.704;2023-09-07T03:22:50;5.63;;;5.00;;
27161;SDS011;54464;50.558;9.704;2023-09-07T03:25:16;6.10;;;5.50;;
27161;SDS011;54464;50.558;9.704;2023-09-07T03:27:42;5.93;;;5.23;;
27161;SDS011;54464;50.558;9.704;2023-09-07T03:30:07;6.60;;;4.97;;
27161;SDS011;54464;50.558;9.704;2023-09-07T03:32:33;6.17;;;5.27;;
27161;SDS011;54464;50.558;9.704;2023-09-07T03:34:59;6.17;;;5.57;;
27161;SDS011;54464;50.558;9.704;2023-09-07T03:37:28;6.53;;;5.40;;
27161;SDS011;54464;50.558;9.704;2023-09-07T03:39:55;5.90;;;5.33;;
27161;SDS011;54464;50.558;9.704;2023-09-07T03:42:21;6.00;;;5.40;;
27161;SDS011;54464;50.558;9.704;2023-09-07T03:44:47;7.37;;;4.90;;
27161;SDS011;54464;50.558;9.704;2023-09-07T03:47:13;6.80;;;4.87;;
27161;SDS011;54464;50.558;9.704;2023-09-07T03:49:39;6.67;;;5.40;;
27161;SDS011;54464;50.558;9.704;2023-09-07T03:52:05;5.87;;;5.23;;
27161;SDS011;54464;50.558;9.704;2023-09-07T03:54:31;6.13;;;4.93;;
27161;SDS011;54464;50.558;9.704;2023-09-07T03:56:56;6.50;;;5.03;;
27161;SDS011;54464;50.558;9.704;2023-09-07T03:59:22;7.73;;;5.20;;
27161;SDS011;54464;50.558;9.704;2023-09-07T04:01:48;5.13;;;4.63;;
27161;SDS011;54464;50.558;9.704;2023-09-07T04:04:14;6.57;;;5.63;;
27161;SDS011;54464;50.558;9.704;2023-09-07T04:06:40;5.20;;;4.70;;
27161;SDS011;54464;50.558;9.704;2023-09-07T04:09:06;6.67;;;5.40;;
27161;SDS011;54464;50.558;9.704;2023-09-07T04:11:31;7.17;;;5.20;;
27161;SDS011;54464;50.558;9.704;2023-09-07T04:13:57;7.13;;;5.70;;
27161;SDS011;54464;50.558;9.704;2023-09-07T04:16:22;6.63;;;5.60;;
27161;SDS011;54464;50.558;9.704;2023-09-07T04:18:48;6.07;;;5.23;;
27161;SDS011;54464;50.558;9.704;2023-09-07T04:21:13;6.07;;;5.13;;
27161;SDS011;54464;50.558;9.704;2023-09-07T04:23:39;8.00;;;5.70;;
27161;SDS011;54464;50.558;9.704;2023-09-07T04:26:08;6.70;;;5.93;;
27161;SDS011;54464;50.558;9.704;2023-09-07T04:28:35;8.93;;;6.63;;
27161;SDS011;54464;50.558;9.704;2023-09-07T04:31:01;7.20;;;6.20;;
27161;SDS011;54464;50.558;9.704;2023-09-07T04:33:29;8.70;;;6.63;;
27161;SDS011;54464;50.558;9.704;2023-09-07T04:38:33;7.87;;;6.73;;
27161;SDS011;54464;50.558;9.704;2023-09-07T04:41:11;9.90;;;7.83;;
27161;SDS011;54464;50.558;9.704;2023-09-07T04:43:38;11.47;;;7.13;;
27161;SDS011;54464;50.558;9.704;2023-09-07T04:46:13;9.47;;;7.13;;
27161;SDS011;54464;50.558;9.704;2023-09-07T04:48:39;9.40;;;6.83;;
27161;SDS011;54464;50.558;9.704;2023-09-07T04:51:06;11.13;;;6.90;;
27161;SDS011;54464;50.558;9.704;2023-09-07T04:53:33;8.10;;;6.60;;
27161;SDS011;54464;50.558;9.704;2023-09-07T04:56:01;10.70;;;7.43;;
27161;SDS011;54464;50.558;9.704;2023-09-07T04:58:27;8.73;;;7.40;;
27161;SDS011;54464;50.558;9.704;2023-09-07T05:00:53;9.90;;;7.40;;
27161;SDS011;54464;50.558;9.704;2023-09-07T05:03:19;11.27;;;8.00;;
27161;SDS011;54464;50.558;9.704;2023-09-07T05:05:44;11.03;;;8.03;;
27161;SDS011;54464;50.558;9.704;2023-09-07T05:08:15;8.27;;;7.40;;
27161;SDS011;54464;50.558;9.704;2023-09-07T05:10:41;10.57;;;7.90;;
27161;SDS011;54464;50.558;9.704;2023-09-07T05:13:07;10.20;;;7.53;;
27161;SDS011;54464;50.558;9.704;2023-09-07T05:15:33;11.00;;;7.67;;
27161;SDS011;54464;50.558;9.704;2023-09-07T05:17:58;9.60;;;7.53;;
27161;SDS011;54464;50.558;9.704;2023-09-07T05:20:24;10.03;;;7.30;;
27161;SDS011;54464;50.558;9.704;2023-09-07T05:22:51;8.00;;;5.90;;
27161;SDS011;54464;50.558;9.704;2023-09-07T05:25:18;6.93;;;5.90;;
27161;SDS011;54464;50.558;9.704;2023-09-07T05:27:45;9.20;;;6.23;;
27161;SDS011;54464;50.558;9.704;2023-09-07T05:30:10;7.73;;;5.67;;
27161;SDS011;54464;50.558;9.704;2023-09-07T05:32:36;7.50;;;5.73;;
27161;SDS011;54464;50.558;9.704;2023-09-07T05:35:02;7.73;;;5.27;;
27161;SDS011;54464;50.558;9.704;2023-09-07T05:37:27;7.53;;;5.67;;
27161;SDS011;54464;50.558;9.704;2023-09-07T05:39:53;8.27;;;6.20;;
27161;SDS011;54464;50.558;9.704;2023-09-07T05:42:18;9.43;;;6.57;;
27161;SDS011;54464;50.558;9.704;2023-09-07T05:44:45;8.53;;;6.30;;
27161;SDS011;54464;50.558;9.704;2023-09-07T05:47:10;8.77;;;6.03;;
27161;SDS011;54464;50.558;9.704;2023-09-07T05:49:36;8.13;;;5.90;;
27161;SDS011;54464;50.558;9.704;2023-09-07T05:52:01;12.17;;;7.30;;
27161;SDS011;54464;50.558;9.704;2023-09-07T05:54:27;9.83;;;7.40;;
27161;SDS011;54464;50.558;9.704;2023-09-07T05:56:53;9.37;;;6.80;;
27161;SDS011;54464;50.558;9.704;2023-09-07T05:59:18;10.83;;;7.53;;
27161;SDS011;54464;50.558;9.704;2023-09-07T06:01:44;10.77;;;8.43;;
27161;SDS011;54464;50.558;9.704;2023-09-07T06:04:10;15.30;;;11.00;;
27161;SDS011;54464;50.558;9.704;2023-09-07T06:06:36;14.97;;;10.83;;
27161;SDS011;54464;50.558;9.704;2023-09-07T06:09:01;15.83;;;11.27;;
27161;SDS011;54464;50.558;9.704;2023-09-07T06:11:28;13.00;;;9.60;;
27161;SDS011;54464;50.558;9.704;2023-09-07T06:13:55;15.63;;;9.67;;
27161;SDS011;54464;50.558;9.704;2023-09-07T06:16:20;11.73;;;9.03;;
27161;SDS011;54464;50.558;9.704;2023-09-07T06:18:46;11.00;;;8.23;;
27161;SDS011;54464;50.558;9.704;2023-09-07T06:21:11;12.93;;;7.60;;
27161;SDS011;54464;50.558;9.704;2023-09-07T06:23:37;11.47;;;7.57;;
27161;SDS011;54464;50.558;9.704;2023-09-07T06:26:03;11.03;;;7.50;;
27161;SDS011;54464;50.558;9.704;2023-09-07T06:28:28;8.63;;;6.90;;
27161;SDS011;54464;50.558;9.704;2023-09-07T06:30:54;11.40;;;7.00;;
27161;SDS011;54464;50.558;9.704;2023-09-07T06:33:19;9.73;;;6.80;;
27161;SDS011;54464;50.558;9.704;2023-09-07T06:35:48;8.00;;;6.57;;
27161;SDS011;54464;50.558;9.704;2023-09-07T06:38:13;9.27;;;7.53;;
27161;SDS011;54464;50.558;9.704;2023-09-07T06:40:39;8.50;;;6.63;;
27161;SDS011;54464;50.558;9.704;2023-09-07T06:43:04;12.60;;;7.13;;
27161;SDS011;54464;50.558;9.704;2023-09-07T06:45:39;7.97;;;6.93;;
27161;SDS011;54464;50.558;9.704;2023-09-07T06:48:05;8.87;;;6.73;;
27161;SDS011;54464;50.558;9.704;2023-09-07T06:50:31;9.07;;;7.27;;
27161;SDS011;54464;50.558;9.704;2023-09-07T06:52:57;9.83;;;7.53;;
27161;SDS011;54464;50.558;9.704;2023-09-07T06:55:24;9.30;;;7.30;;
27161;SDS011;54464;50.558;9.704;2023-09-07T06:57:51;9.97;;;7.97;;
27161;SDS011;54464;50.558;9.704;2023-09-07T07:00:18;10.43;;;7.43;;
27161;SDS011;54464;50.558;9.704;2023-09-07T07:02:44;11.93;;;7.03;;
27161;SDS011;54464;50.558;9.704;2023-09-07T07:05:09;9.53;;;7.07;;
27161;SDS011;54464;50.558;9.704;2023-09-07T07:07:35;8.80;;;7.00;;
27161;SDS011;54464;50.558;9.704;2023-09-07T07:10:00;11.30;;;7.40;;
27161;SDS011;54464;50.558;9.704;2023-09-07T07:12:26;9.37;;;6.53;;
27161;SDS011;54464;50.558;9.704;2023-09-07T07:14:52;10.20;;;6.83;;
27161;SDS011;54464;50.558;9.704;2023-09-07T07:17:17;7.80;;;6.93;;
27161;SDS011;54464;50.558;9.704;2023-09-07T07:19:43;8.67;;;7.00;;
27161;SDS011;54464;50.558;9.704;2023-09-07T07:22:08;10.93;;;7.60;;
27161;SDS011;54464;50.558;9.704;2023-09-07T07:24:34;9.93;;;8.00;;
27161;SDS011;54464;50.558;9.704;2023-09-07T07:26:59;10.07;;;7.30;;
27161;SDS011;54464;50.558;9.704;2023-09-07T07:29:25;11.00;;;7.47;;
27161;SDS011;54464;50.558;9.704;2023-09-07T07:31:51;8.77;;;7.27;;
27161;SDS011;54464;50.558;9.704;2023-09-07T07:34:16;8.00;;;6.43;;
27161;SDS011;54464;50.558;9.704;2023-09-07T07:36:42;9.23;;;6.97;;
27161;SDS011;54464;50.558;9.704;2023-09-07T07:39:08;9.07;;;6.90;;
27161;SDS011;54464;50.558;9.704;2023-09-07T07:41:45;7.87;;;6.43;;
27161;SDS011;54464;50.558;9.704;2023-09-07T07:44:11;9.20;;;7.07;;
27161;SDS011;54464;50.558;9.704;2023-09-07T07:46:37;12.40;;;6.73;;
27161;SDS011;54464;50.558;9.704;2023-09-07T07:49:02;13.60;;;7.73;;
27161;SDS011;54464;50.558;9.704;2023-09-07T07:51:28;9.27;;;7.80;;
27161;SDS011;54464;50.558;9.704;2023-09-07T07:53:54;9.60;;;7.17;;
27161;SDS011;54464;50.558;9.704;2023-09-07T07:56:21;10.03;;;7.67;;
27161;SDS011;54464;50.558;9.704;2023-09-07T07:58:48;8.67;;;6.63;;
27161;SDS011;54464;50.558;9.704;2023-09-07T08:01:18;7.50;;;6.37;;
27161;SDS011;54464;50.558;9.704;2023-09-07T08:03:48;7.77;;;6.97;;
27161;SDS011;54464;50.558;9.704;2023-09-07T08:06:14;7.30;;;6.47;;
27161;SDS011;54464;50.558;9.704;2023-09-07T08:08:40;7.00;;;6.27;;
27161;SDS011;54464;50.558;9.704;2023-09-07T08:11:06;8.50;;;6.27;;
27161;SDS011;54464;50.558;9.704;2023-09-07T08:13:32;7.47;;;6.67;;
27161;SDS011;54464;50.558;9.704;2023-09-07T08:16:18;7.73;;;6.60;;
27161;SDS011;54464;50.558;9.704;2023-09-07T08:18:44;7.23;;;6.13;;
27161;SDS011;54464;50.558;9.704;2023-09-07T08:21:13;10.47;;;6.20;;
27161;SDS011;54464;50.558;9.704;2023-09-07T08:23:43;8.30;;;6.37;;
27161;SDS011;54464;50.558;9.704;2023-09-07T08:26:08;8.10;;;5.60;;
27161;SDS011;54464;50.558;9.704;2023-09-07T08:28:34;6.10;;;5.50;;
27161;SDS011;54464;50.558;9.704;2023-09-07T08:31:00;7.00;;;6.00;;
27161;SDS011;54464;50.558;9.704;2023-09-07T08:33:26;9.63;;;5.90;;
27161;SDS011;54464;50.558;9.704;2023-09-07T08:36:00;7.33;;;5.93;;
27161;SDS011;54464;50.558;9.704;2023-09-07T08:38:26;6.60;;;6.00;;
27161;SDS011;54464;50.558;9.704;2023-09-07T08:40:55;7.17;;;5.60;;
27161;SDS011;54464;50.558;9.704;2023-09-07T08:43:29;8.13;;;5.40;;
27161;SDS011;54464;50.558;9.704;2023-09-07T08:46:06;7.40;;;5.60;;
27161;SDS011;54464;50.558;9.704;2023-09-07T08:48:42;7.87;;;5.60;;
27161;SDS011;54464;50.558;9.704;2023-09-07T08:51:09;8.10;;;5.60;;
27161;SDS011;54464;50.558;9.704;2023-09-07T08:53:39;7.97;;;5.10;;
27161;SDS011;54464;50.558;9.704;2023-09-07T08:56:05;10.00;;;5.00;;
27161;SDS011;54464;50.558;9.704;2023-09-07T08:58:36;7.33;;;5.00;;
27161;SDS011;54464;50.558;9.704;2023-09-07T09:01:02;9.40;;;4.57;;
27161;SDS011;54464;50.558;9.704;2023-09-07T09:03:28;6.43;;;4.30;;
27161;SDS011;54464;50.558;9.704;2023-09-07T09:05:56;5.78;;;4.20;;
27161;SDS011;54464;50.558;9.704;2023-09-07T09:08:22;4.68;;;4.00;;
27161;SDS011;54464;50.558;9.704;2023-09-07T09:10:58;7.00;;;4.07;;
27161;SDS011;54464;50.558;9.704;2023-09-07T09:13:30;5.32;;;4.22;;
27161;SDS011;54464;50.558;9.704;2023-09-07T09:15:58;6.63;;;4.10;;
27161;SDS011;54464;50.558;9.704;2023-09-07T09:18:25;4.65;;;4.07;;
27161;SDS011;54464;50.558;9.704;2023-09-07T09:20:52;7.03;;;4.30;;
27161;SDS011;54464;50.558;9.704;2023-09-07T09:23:24;5.05;;;3.75;;
27161;SDS011;54464;50.558;9.704;2023-09-07T09:25:55;4.15;;;3.75;;
27161;SDS011;54464;50.558;9.704;2023-09-07T09:28:21;4.10;;;3.70;;
27161;SDS011;54464;50.558;9.704;2023-09-07T09:30:47;3.97;;;3.58;;
27161;SDS011;54464;50.558;9.704;2023-09-07T09:33:14;4.20;;;3.72;;
27161;SDS011;54464;50.558;9.704;2023-09-07T09:35:40;5.72;;;3.90;;
27161;SDS011;54464;50.558;9.704;2023-09-07T09:38:07;4.82;;;4.32;;
27161;SDS011;54464;50.558;9.704;2023-09-07T09:40:35;3.85;;;3.55;;
27161;SDS011;54464;50.558;9.704;2023-09-07T09:43:01;4.38;;;3.55;;
27161;SDS011;54464;50.558;9.704;2023-09-07T09:45:28;4.00;;;3.60;;
27161;SDS011;54464;50.558;9.704;2023-09-07T09:47:54;3.55;;;3.25;;
27161;SDS011;54464;50.558;9.704;2023-09-07T09:50:21;4.60;;;3.30;;
27161;SDS011;54464;50.558;9.704;2023-09-07T09:52:48;3.45;;;3.15;;
27161;SDS011;54464;50.558;9.704;2023-09-07T09:55:13;5.85;;;3.38;;
27161;SDS011;54464;50.558;9.704;2023-09-07T09:57:40;4.10;;;3.70;;
27161;SDS011;54464;50.558;9.704;2023-09-07T10:00:06;3.80;;;3.35;;
27161;SDS011;54464;50.558;9.704;2023-09-07T10:03:00;3.53;;;3.20;;
27161;SDS011;54464;50.558;9.704;2023-09-07T10:05:30;4.15;;;3.40;;
27161;SDS011;54464;50.558;9.704;2023-09-07T10:08:01;4.18;;;3.13;;
27161;SDS011;54464;50.558;9.704;2023-09-07T10:10:37;3.20;;;2.90;;
27161;SDS011;54464;50.558;9.704;2023-09-07T10:13:04;4.28;;;3.30;;
27161;SDS011;54464;50.558;9.704;2023-09-07T10:15:30;4.80;;;3.50;;
27161;SDS011;54464;50.558;9.704;2023-09-07T10:18:32;3.65;;;3.05;;
27161;SDS011;54464;50.558;9.704;2023-09-07T10:20:58;3.08;;;2.78;;
27161;SDS011;54464;50.558;9.704;2023-09-07T10:26:13;4.72;;;3.15;;
27161;SDS011;54464;50.558;9.704;2023-09-07T10:28:40;2.85;;;2.63;;
27161;SDS011;54464;50.558;9.704;2023-09-07T10:31:07;3.45;;;3.03;;
27161;SDS011;54464;50.558;9.704;2023-09-07T10:33:42;2.92;;;2.55;;
27161;SDS011;54464;50.558;9.704;2023-09-07T10:36:08;2.92;;;2.60;;
27161;SDS011;54464;50.558;9.704;2023-09-07T10:38:44;3.83;;;2.85;;
27161;SDS011;54464;50.558;9.704;2023-09-07T10:41:10;3.38;;;2.92;;
27161;SDS011;54464;50.558;9.704;2023-09-07T10:43:36;4.00;;;3.00;;
27161;SDS011;54464;50.558;9.704;2023-09-07T10:46:18;3.42;;;2.80;;
27161;SDS011;54464;50.558;9.704;2023-09-07T10:48:45;3.78;;;3.10;;
27161;SDS011;54464;50.558;9.704;2023-09-07T10:51:13;3.47;;;2.83;;
27161;SDS011;54464;50.558;9.704;2023-09-07T10:53:39;3.42;;;2.97;;
27161;SDS011;54464;50.558;9.704;2023-09-07T10:56:05;3.22;;;2.83;;
27161;SDS011;54464;50.558;9.704;2023-09-07T10:58:31;3.08;;;2.78;;
27161;SDS011;54464;50.558;9.704;2023-09-07T11:00:58;2.95;;;2.67;;
27161;SDS011;54464;50.558;9.704;2023-09-07T11:03:25;2.97;;;2.70;;
27161;SDS011;54464;50.558;9.704;2023-09-07T11:05:55;4.85;;;2.90;;
27161;SDS011;54464;50.558;9.704;2023-09-07T11:08:31;3.20;;;2.90;;
27161;SDS011;54464;50.558;9.704;2023-09-07T11:10:58;3.35;;;2.47;;
27161;SDS011;54464;50.558;9.704;2023-09-07T11:13:24;5.60;;;2.55;;
27161;SDS011;54464;50.558;9.704;2023-09-07T11:15:53;3.20;;;2.90;;
27161;SDS011;54464;50.558;9.704;2023-09-07T11:18:20;3.20;;;2.90;;
27161;SDS011;54464;50.558;9.704;2023-09-07T11:20:47;2.90;;;2.50;;
27161;SDS011;54464;50.558;9.704;2023-09-07T11:23:14;2.97;;;2.70;;
27161;SDS011;54464;50.558;9.704;2023-09-07T11:25:39;3.08;;;2.60;;
27161;SDS011;54464;50.558;9.704;2023-09-07T11:28:05;3.15;;;2.63;;
27161;SDS011;54464;50.558;9.704;2023-09-07T11:30:34;3.10;;;2.45;;
27161;SDS011;54464;50.558;9.704;2023-09-07T11:33:07;3.10;;;2.80;;
27161;SDS011;54464;50.558;9.704;2023-09-07T11:35:33;2.60;;;2.40;;
27161;SDS011;54464;50.558;9.704;2023-09-07T11:38:00;3.25;;;2.55;;
27161;SDS011;54464;50.558;9.704;2023-09-07T11:40:26;2.83;;;2.50;;
27161;SDS011;54464;50.558;9.704;2023-09-07T11:42:52;2.65;;;2.40;;
27161;SDS011;54464;50.558;9.704;2023-09-07T11:45:19;3.95;;;2.88;;
27161;SDS011;54464;50.558;9.704;2023-09-07T11:47:45;4.10;;;2.70;;
27161;SDS011;54464;50.558;9.704;2023-09-07T11:50:10;2.60;;;2.40;;
27161;SDS011;54464;50.558;9.704;2023-09-07T11:52:36;4.43;;;3.22;;
27161;SDS011;54464;50.558;9.704;2023-09-07T11:55:02;3.25;;;2.53;;
27161;SDS011;54464;50.558;9.704;2023-09-07T11:57:28;2.80;;;2.60;;
27161;SDS011;54464;50.558;9.704;2023-09-07T11:59:54;2.53;;;2.33;;
27161;SDS011;54464;50.558;9.704;2023-09-07T12:02:20;3.33;;;2.55;;
27161;SDS011;54464;50.558;9.704;2023-09-07T12:04:46;2.75;;;2.33;;
27161;SDS011;54464;50.558;9.704;2023-09-07T12:07:15;2.67;;;2.40;;
27161;SDS011;54464;50.558;9.704;2023-09-07T12:09:41;2.65;;;2.45;;
27161;SDS011;54464;50.558;9.704;2023-09-07T12:12:08;2.60;;;2.40;;
27161;SDS011;54464;50.558;9.704;2023-09-07T12:14:35;3.28;;;2.60;;
27161;SDS011;54464;50.558;9.704;2023-09-07T12:17:01;2.75;;;2.47;;
27161;SDS011;54464;50.558;9.704;2023-09-07T12:19:28;3.20;;;2.65;;
27161;SDS011;54464;50.558;9.704;2023-09-07T12:21:53;2.65;;;2.45;;
27161;SDS011;54464;50.558;9.704;2023-09-07T12:24:19;3.33;;;2.70;;
27161;SDS011;54464;50.558;9.704;2023-09-07T12:26:45;2.72;;;2.45;;
27161;SDS011;54464;50.558;9.704;2023-09-07T12:29:11;3.33;;;2.80;;
27161;SDS011;54464;50.558;9.704;2023-09-07T12:31:36;2.85;;;2.53;;
27161;SDS011;54464;50.558;9.704;2023-09-07T12:34:02;2.85;;;2.50;;
27161;SDS011;54464;50.558;9.704;2023-09-07T12:36:28;3.95;;;2.60;;
27161;SDS011;54464;50.558;9.704;2023-09-07T12:38:55;3.15;;;2.80;;
27161;SDS011;54464;50.558;9.704;2023-09-07T12:41:29;2.97;;;2.50;;
27161;SDS011;54464;50.558;9.704;2023-09-07T12:43:55;2.80;;;2.60;;
27161;SDS011;54464;50.558;9.704;2023-09-07T12:46:21;3.90;;;2.55;;
27161;SDS011;54464;50.558;9.704;2023-09-07T12:48:47;2.63;;;2.08;;
27161;SDS011;54464;50.558;9.704;2023-09-07T12:51:13;3.92;;;2.78;;
27161;SDS011;54464;50.558;9.704;2023-09-07T12:53:38;3.92;;;2.72;;
27161;SDS011;54464;50.558;9.704;2023-09-07T12:56:05;2.45;;;2.25;;
27161;SDS011;54464;50.558;9.704;2023-09-07T12:58:31;2.75;;;2.38;;
27161;SDS011;54464;50.558;9.704;2023-09-07T13:00:57;4.07;;;2.58;;
27161;SDS011;54464;50.558;9.704;2023-09-07T13:03:22;3.08;;;2.55;;
27161;SDS011;54464;50.558;9.704;2023-09-07T13:05:48;3.58;;;2.67;;
27161;SDS011;54464;50.558;9.704;2023-09-07T13:08:14;2.90;;;2.50;;
27161;SDS011;54464;50.558;9.704;2023-09-07T13:10:39;5.03;;;2.75;;
27161;SDS011;54464;50.558;9.704;2023-09-07T13:13:05;4.40;;;2.33;;
27161;SDS011;54464;50.558;9.704;2023-09-07T13:15:32;3.13;;;2.80;;
27161;SDS011;54464;50.558;9.704;2023-09-07T13:17:57;2.67;;;2.40;;
27161;SDS011;54464;50.558;9.704;2023-09-07T13:20:23;2.63;;;2.40;;
27161;SDS011;54464;50.558;9.704;2023-09-07T13:22:49;3.33;;;2.70;;
27161;SDS011;54464;50.558;9.704;2023-09-07T13:25:14;2.75;;;2.40;;
27161;SDS011;54464;50.558;9.704;2023-09-07T13:27:40;2.63;;;2.42;;
27161;SDS011;54464;50.558;9.704;2023-09-07T13:30:06;3.60;;;2.58;;
27161;SDS011;54464;50.558;9.704;2023-09-07T13:32:37;2.42;;;2.15;;
27161;SDS011;54464;50.558;9.704;2023-09-07T13:35:03;2.80;;;2.50;;
27161;SDS011;54464;50.558;9.704;2023-09-07T13:37:29;2.63;;;2.30;;
27161;SDS011;54464;50.558;9.704;2023-09-07T13:39:55;2.92;;;2.63;;
27161;SDS011;54464;50.558;9.704;2023-09-07T13:42:20;2.80;;;2.60;;
27161;SDS011;54464;50.558;9.704;2023-09-07T13:44:46;2.90;;;2.60;;
27161;SDS011;54464;50.558;9.704;2023-09-07T13:47:12;3.10;;;2.50;;
27161;SDS011;54464;50.558;9.704;2023-09-07T13:49:38;4.15;;;2.60;;
27161;SDS011;54464;50.558;9.704;2023-09-07T13:52:04;3.47;;;2.60;;
27161;SDS011;54464;50.558;9.704;2023-09-07T13:54:29;3.47;;;2.60;;
27161;SDS011;54464;50.558;9.704;2023-09-07T13:56:55;2.88;;;2.60;;
27161;SDS011;54464;50.558;9.704;2023-09-07T13:59:21;2.67;;;2.47;;
27161;SDS011;54464;50.558;9.704;2023-09-07T14:01:47;4.20;;;2.72;;
27161;SDS011;54464;50.558;9.704;2023-09-07T14:04:14;3.00;;;2.72;;
27161;SDS011;54464;50.558;9.704;2023-09-07T14:06:40;3.35;;;2.55;;
27161;SDS011;54464;50.558;9.704;2023-09-07T14:09:05;3.13;;;2.65;;
27161;SDS011;54464;50.558;9.704;2023-09-07T14:11:31;2.80;;;2.22;;
27161;SDS011;54464;50.558;9.704;2023-09-07T14:13:58;3.40;;;2.42;;
27161;SDS011;54464;50.558;9.704;2023-09-07T14:16:23;3.67;;;2.65;;
27161;SDS011;54464;50.558;9.704;2023-09-07T14:18:49;3.60;;;2.80;;
27161;SDS011;54464;50.558;9.704;2023-09-07T14:21:15;5.75;;;2.70;;
27161;SDS011;54464;50.558;9.704;2023-09-07T14:23:41;3.15;;;2.85;;
27161;SDS011;54464;50.558;9.704;2023-09-07T14:26:10;3.58;;;2.75;;
27161;SDS011;54464;50.558;9.704;2023-09-07T14:28:36;3.20;;;2.90;;
27161;SDS011;54464;50.558;9.704;2023-09-07T14:31:03;3.60;;;2.67;;
27161;SDS011;54464;50.558;9.704;2023-09-07T14:33:31;2.80;;;2.25;;
27161;SDS011;54464;50.558;9.704;2023-09-07T14:35:57;2.88;;;2.67;;
27161;SDS011;54464;50.558;9.704;2023-09-07T14:38:23;3.20;;;2.53;;
27161;SDS011;54464;50.558;9.704;2023-09-07T14:40:49;3.05;;;2.72;;
27161;SDS011;54464;50.558;9.704;2023-09-07T14:43:15;3.92;;;2.80;;
27161;SDS011;54464;50.558;9.704;2023-09-07T14:45:42;2.65;;;2.45;;
27161;SDS011;54464;50.558;9.704;2023-09-07T14:48:08;2.80;;;2.30;;
27161;SDS011;54464;50.558;9.704;2023-09-07T14:50:34;3.33;;;2.60;;